Terminal Aerodrome Forecast
Issued by NWS

Home | Current Version | Previous Version | Graphics & Text | Print | Product List | Glossary Off
Versions: 1 2 3 4 5 6 7 8 9 10 11 12 13 14

000
FTUS43 KLSX 241700
TAFSUS
TAF
KSUS 241720Z 2418/2518 24005KT P6SM SCT020 BKN250
     FM250000 VRB03KT P6SM SCT250
     FM250900 28005KT 5SM BR SCT250
      TEMPO 2511/2514 3SM BR
     FM251500 30007KT P6SM SKC=

USA.gov is the U.S. government's official web portal to all federal, state and local government web resources and services.